Kezdőlap
METAR-TAF:

METAR-TAF

Repülőterek :

Ivalói repülőtér

Ivalo, Finnország

földrajzi szélesség: 68-37N, földrajzi hosszúság: 027-25E, magasság: 147 m

Jelenlegi meteorológiai megfigyelések

A jelentés 28 perccel ezelõtt készült, 23:20 UTC
Különbözõ irányokból fújó szél 1 kt
Hőmérséklet 0°C
Páratartalom 93%
Légköri nyomás 1000 hPa
Látótávolság 10 km, vagy több
Borult 1200 lábon
enyhe hózápor

METAR: EFIV 242320Z AUTO VRB01KT 9999 -SHSN OVC012 M00/M01 Q1000 REFZRA

Idő: 02:48 (23:48 UTC)

Előrejelzés

A jelentés 17 órával és 3 perccel ezelõtt készült, 06:45 UTC
Az előrejelzés 24-én 06 óra UTC és 24-én 09 óra UTC között érvényes
Délnyugati szél 5 kt
Látótávolság 10 km, vagy több
Borult 700 lábon
enyhe havazás
24-én 06 óra UTC és 24-én 09 óra UTC között ideiglenes
Látótávolság: 2500 m
Szórványos felhőzet 500 lábon
Szakadozott felhőzet 2000 lábon

TAF: EFIV 240645Z 2406/2409 23005KT 9999 -SN OVC007 TEMPO 2406/2409 2500 SCT005 BKN020

Meteorológiai megfigyelések és előrejelzések több, mint 4000 repülőtéren (METAR és TAF jelentéseket).

A térképen piros és sárga pontok jelzik az elérhető meteorológiai állomásokat.

Mozgassa az egeret a pont fölött, hogy megjelenjen az állomás neve.

Azután kattintson az időjárási megfigyelések és előrejelzések megtekintéséhez.

A térkép megváltoztatása: kattintson a fekete keresztel jelölt zöld gombra ráközelítéshez, a vonallal jelölt zöld gombra távolításhoz, vagy a zöld nyilakra a szomszédos térképek eléréséhez.


METAR-TAF: